Pagrindinis puslapis
METAR-TAF:

METAR-TAF

Oro uostai :

Sand Point, Aliaska, Jungtinės Amerikos Valstijos

platuma: 55-19N, ilguma: 160-31W, Aukštis: 7 m

Dabartinis oras

Ataskaita buvo paskelbta 46 minutes, ne 21:03 UTC
Vėjas 7 kt iš Šiaurės
Temperatūra 9°C
Drėgmė 71%
Slėgis 1022 hPa
Matomumas: 16.1 km
Mažai debesys ne aukštis 2300 ft
Išsisklaidę debesys ne aukštis 3400 ft
Su prošvaistėmis ne aukštis 6000 ft

METAR: PASD 052103Z 36007KT 10SM FEW023 SCT034 BKN060 09/04 A3018 RMK AO2 PNO $

Laikas: 13:49 (21:49 UTC)

Prognozė

Ataskaita buvo paskelbta 4 valandos ir 12 minutes, ne 17:37 UTC
Prognozė galioja nuo 05 metu 18 UTC su 06 metu 18 UTC
Vėjas 8 kt iš Šiaurės/Šiaurės Vakarų
Matomumas: 10 km
Išsisklaidę debesys ne aukštis 2500 ft
Su prošvaistėmis ne aukštis 5000 ft
Liūtis kaimynystėje
Nuo 06 metu 1200 UTC
Vėjas 3 kt iš Pietvakarių
Matomumas: 10 km
Apsiniaukę ne aukštis 2500 ft
Liūtis kaimynystėje

TAF: PASD 051737Z 0518/0618 34008KT P6SM VCSH SCT025 BKN050 FM061200 22003KT P6SM VCSH OVC025 AMD LTD TO CLD VIS AND WIND

Orai ataskaitas ir orų prognozės (METAR, TAF).

turimą stotys yra geltonos ir raudonos taškus žemėlapyje.

Perkelti pele per norėdami pamatyti stoties vardą.

Tada spustelėkite, norėdami matyti oro stebėjimo ir prognozės.

Norėdami pakeisti žemėlapį: spustelėkite ant žalios mygtukų su juodo kryžiaus žemyn,; žalią mygtuką su brūkšneliu, jei norite nutolinti; arba žalių rodyklių gretimoms žemėlapius.


METAR-TAF: